KHND

Henderson Executive Airport

Las Vegas, Nevada, USA
METAR KHND 212356Z 16003KT 10SM BKN095 08/M13 A3007 RMK AO2 SLP195 T00831133 10100 20061 56007 $
Observed Flight Rules
Feb-21 @ 23:56 UTC (5 hours ago) Visual Flight Rules
Wind Visibility Clouds
160° at 3 knots 10 miles
  • Broken at 9,500' AGL
Temperatures Readings
Current 8°C / 46°F
Dewpoint -13°C / 9°F
Humidity 21%
Altimeter 30.07" Hg
Pressure 1019.5 hPa
Elevation 749
METAR KHND 212356Z 16003KT 10SM BKN095 08/M13 A3007 RMK AO2 SLP195 T00831133 10100 20061 56007 $
Observed Flight Rules
Feb-21 @ 23:56 UTC
(5 hours ago)
VFR
Wind Visibility
160° at 3 knots 10 miles
Clouds
  • Broken at 9,500' AGL
Temperature Dewpoint
8°C / 46°F -13°C / 9°F
Humidity Altimeter Pressure
21% 30.07" Hg 1019.5 hPa